sensor_id;sensor_type;location;lat;lon;timestamp;pressure;altitude;pressure_sealevel;temperature
12854;BMP180;6495;51.808;7.478;2023-03-19T00:08:36;100638.00;;;11.10
12854;BMP180;6495;51.808;7.478;2023-03-19T00:11:06;100650.00;;;11.10
12854;BMP180;6495;51.808;7.478;2023-03-19T00:13:34;100649.00;;;11.10
12854;BMP180;6495;51.808;7.478;2023-03-19T00:16:03;100642.00;;;11.10
12854;BMP180;6495;51.808;7.478;2023-03-19T00:18:32;100638.00;;;11.20
12854;BMP180;6495;51.808;7.478;2023-03-19T00:21:00;100645.00;;;11.20
12854;BMP180;6495;51.808;7.478;2023-03-19T00:23:29;100654.00;;;11.20
12854;BMP180;6495;51.808;7.478;2023-03-19T00:25:59;100665.00;;;11.20
12854;BMP180;6495;51.808;7.478;2023-03-19T00:28:27;100663.00;;;11.20
12854;BMP180;6495;51.808;7.478;2023-03-19T00:30:56;100660.00;;;11.10
12854;BMP180;6495;51.808;7.478;2023-03-19T00:33:24;100659.00;;;11.10
12854;BMP180;6495;51.808;7.478;2023-03-19T00:35:53;100665.00;;;11.10
12854;BMP180;6495;51.808;7.478;2023-03-19T00:38:21;100662.00;;;11.00
12854;BMP180;6495;51.808;7.478;2023-03-19T00:40:50;100663.00;;;11.00
12854;BMP180;6495;51.808;7.478;2023-03-19T00:43:19;100667.00;;;10.90
12854;BMP180;6495;51.808;7.478;2023-03-19T00:45:48;100673.00;;;10.80
12854;BMP180;6495;51.808;7.478;2023-03-19T00:48:16;100668.00;;;10.80
12854;BMP180;6495;51.808;7.478;2023-03-19T00:50:45;100665.00;;;10.90
12854;BMP180;6495;51.808;7.478;2023-03-19T00:53:13;100666.00;;;10.90
12854;BMP180;6495;51.808;7.478;2023-03-19T00:55:42;100645.00;;;10.90
12854;BMP180;6495;51.808;7.478;2023-03-19T00:58:10;100652.00;;;10.90
12854;BMP180;6495;51.808;7.478;2023-03-19T01:00:40;100661.00;;;10.90
12854;BMP180;6495;51.808;7.478;2023-03-19T01:03:08;100671.00;;;10.90
12854;BMP180;6495;51.808;7.478;2023-03-19T01:05:37;100677.00;;;11.00
12854;BMP180;6495;51.808;7.478;2023-03-19T01:08:06;100682.00;;;11.00
12854;BMP180;6495;51.808;7.478;2023-03-19T01:10:35;100689.00;;;11.00
12854;BMP180;6495;51.808;7.478;2023-03-19T01:13:04;100680.00;;;11.10
12854;BMP180;6495;51.808;7.478;2023-03-19T01:15:35;100691.00;;;11.10
12854;BMP180;6495;51.808;7.478;2023-03-19T01:18:05;100691.00;;;11.10
12854;BMP180;6495;51.808;7.478;2023-03-19T01:20:36;100683.00;;;11.10
12854;BMP180;6495;51.808;7.478;2023-03-19T01:23:06;100685.00;;;11.10
12854;BMP180;6495;51.808;7.478;2023-03-19T01:25:35;100684.00;;;11.00
12854;BMP180;6495;51.808;7.478;2023-03-19T01:28:05;100678.00;;;11.00
12854;BMP180;6495;51.808;7.478;2023-03-19T01:30:36;100676.00;;;11.00
12854;BMP180;6495;51.808;7.478;2023-03-19T01:33:26;100654.00;;;11.00
12854;BMP180;6495;51.808;7.478;2023-03-19T01:35:58;100648.00;;;11.00
12854;BMP180;6495;51.808;7.478;2023-03-19T01:38:36;100655.00;;;11.10
12854;BMP180;6495;51.808;7.478;2023-03-19T01:41:09;100658.00;;;10.90
12854;BMP180;6495;51.808;7.478;2023-03-19T01:43:39;100658.00;;;10.80
12854;BMP180;6495;51.808;7.478;2023-03-19T01:46:36;100649.00;;;10.80
12854;BMP180;6495;51.808;7.478;2023-03-19T01:49:30;100655.00;;;10.80
12854;BMP180;6495;51.808;7.478;2023-03-19T01:52:14;100659.00;;;10.80
12854;BMP180;6495;51.808;7.478;2023-03-19T01:55:05;100660.00;;;10.70
12854;BMP180;6495;51.808;7.478;2023-03-19T01:57:47;100656.00;;;10.80
12854;BMP180;6495;51.808;7.478;2023-03-19T02:00:43;100655.00;;;10.80
12854;BMP180;6495;51.808;7.478;2023-03-19T02:03:13;100653.00;;;10.70
12854;BMP180;6495;51.808;7.478;2023-03-19T02:06:31;100664.00;;;10.70
12854;BMP180;6495;51.808;7.478;2023-03-19T02:09:01;100654.00;;;10.60
12854;BMP180;6495;51.808;7.478;2023-03-19T02:11:31;100659.00;;;10.70
12854;BMP180;6495;51.808;7.478;2023-03-19T02:13:59;100659.00;;;10.70
12854;BMP180;6495;51.808;7.478;2023-03-19T02:16:28;100654.00;;;10.70
12854;BMP180;6495;51.808;7.478;2023-03-19T02:18:56;100655.00;;;10.60
12854;BMP180;6495;51.808;7.478;2023-03-19T02:21:25;100662.00;;;10.70
12854;BMP180;6495;51.808;7.478;2023-03-19T02:24:03;100661.00;;;10.80
12854;BMP180;6495;51.808;7.478;2023-03-19T02:26:54;100658.00;;;10.80
12854;BMP180;6495;51.808;7.478;2023-03-19T02:29:24;100644.00;;;10.80
12854;BMP180;6495;51.808;7.478;2023-03-19T02:31:56;100640.00;;;10.80
12854;BMP180;6495;51.808;7.478;2023-03-19T02:34:37;100643.00;;;10.80
12854;BMP180;6495;51.808;7.478;2023-03-19T02:37:12;100651.00;;;10.70
12854;BMP180;6495;51.808;7.478;2023-03-19T02:39:50;100639.00;;;10.70
12854;BMP180;6495;51.808;7.478;2023-03-19T02:42:27;100649.00;;;10.70
12854;BMP180;6495;51.808;7.478;2023-03-19T02:44:56;100646.00;;;10.70
12854;BMP180;6495;51.808;7.478;2023-03-19T02:47:26;100658.00;;;10.60
12854;BMP180;6495;51.808;7.478;2023-03-19T02:49:54;100649.00;;;10.60
12854;BMP180;6495;51.808;7.478;2023-03-19T02:52:22;100645.00;;;10.60
12854;BMP180;6495;51.808;7.478;2023-03-19T02:54:51;100650.00;;;10.60
12854;BMP180;6495;51.808;7.478;2023-03-19T02:57:19;100646.00;;;10.60
12854;BMP180;6495;51.808;7.478;2023-03-19T02:59:49;100652.00;;;10.70
12854;BMP180;6495;51.808;7.478;2023-03-19T03:02:18;100637.00;;;10.60
12854;BMP180;6495;51.808;7.478;2023-03-19T03:04:47;100639.00;;;10.60
12854;BMP180;6495;51.808;7.478;2023-03-19T03:07:15;100638.00;;;10.50
12854;BMP180;6495;51.808;7.478;2023-03-19T03:09:46;100645.00;;;10.50
12854;BMP180;6495;51.808;7.478;2023-03-19T03:12:17;100638.00;;;10.40
12854;BMP180;6495;51.808;7.478;2023-03-19T03:14:45;100639.00;;;10.40
12854;BMP180;6495;51.808;7.478;2023-03-19T03:17:15;100644.00;;;10.40
12854;BMP180;6495;51.808;7.478;2023-03-19T03:19:44;100641.00;;;10.40
12854;BMP180;6495;51.808;7.478;2023-03-19T03:22:12;100642.00;;;10.40
12854;BMP180;6495;51.808;7.478;2023-03-19T03:24:40;100637.00;;;10.30
12854;BMP180;6495;51.808;7.478;2023-03-19T03:27:09;100633.00;;;10.30
12854;BMP180;6495;51.808;7.478;2023-03-19T03:29:37;100635.00;;;10.40
12854;BMP180;6495;51.808;7.478;2023-03-19T03:32:06;100638.00;;;10.40
12854;BMP180;6495;51.808;7.478;2023-03-19T03:34:36;100635.00;;;10.40
12854;BMP180;6495;51.808;7.478;2023-03-19T03:37:05;100639.00;;;10.40
12854;BMP180;6495;51.808;7.478;2023-03-19T03:39:34;100638.00;;;10.40
12854;BMP180;6495;51.808;7.478;2023-03-19T03:42:04;100641.00;;;10.40
12854;BMP180;6495;51.808;7.478;2023-03-19T03:44:33;100641.00;;;10.40
12854;BMP180;6495;51.808;7.478;2023-03-19T03:47:02;100642.00;;;10.40
12854;BMP180;6495;51.808;7.478;2023-03-19T03:49:31;100646.00;;;10.40
12854;BMP180;6495;51.808;7.478;2023-03-19T03:52:00;100650.00;;;10.30
12854;BMP180;6495;51.808;7.478;2023-03-19T03:54:29;100661.00;;;10.30
12854;BMP180;6495;51.808;7.478;2023-03-19T03:56:58;100654.00;;;10.30
12854;BMP180;6495;51.808;7.478;2023-03-19T03:59:30;100648.00;;;10.20
12854;BMP180;6495;51.808;7.478;2023-03-19T04:01:58;100641.00;;;10.20
12854;BMP180;6495;51.808;7.478;2023-03-19T04:04:27;100648.00;;;10.20
12854;BMP180;6495;51.808;7.478;2023-03-19T04:06:55;100654.00;;;10.20
12854;BMP180;6495;51.808;7.478;2023-03-19T04:09:38;100654.00;;;10.20
12854;BMP180;6495;51.808;7.478;2023-03-19T04:12:07;100649.00;;;10.20
12854;BMP180;6495;51.808;7.478;2023-03-19T04:14:36;100649.00;;;10.20
12854;BMP180;6495;51.808;7.478;2023-03-19T04:17:04;100649.00;;;10.20
12854;BMP180;6495;51.808;7.478;2023-03-19T04:19:32;100650.00;;;10.20
12854;BMP180;6495;51.808;7.478;2023-03-19T04:22:01;100655.00;;;10.20
12854;BMP180;6495;51.808;7.478;2023-03-19T04:24:31;100659.00;;;10.20
12854;BMP180;6495;51.808;7.478;2023-03-19T04:27:02;100656.00;;;10.20
12854;BMP180;6495;51.808;7.478;2023-03-19T04:29:30;100656.00;;;10.20
12854;BMP180;6495;51.808;7.478;2023-03-19T04:32:00;100653.00;;;10.20
12854;BMP180;6495;51.808;7.478;2023-03-19T04:34:28;100655.00;;;10.20
12854;BMP180;6495;51.808;7.478;2023-03-19T04:36:57;100656.00;;;10.20
12854;BMP180;6495;51.808;7.478;2023-03-19T04:39:26;100655.00;;;10.20
12854;BMP180;6495;51.808;7.478;2023-03-19T04:41:54;100651.00;;;10.20
12854;BMP180;6495;51.808;7.478;2023-03-19T04:44:33;100655.00;;;10.20
12854;BMP180;6495;51.808;7.478;2023-03-19T04:47:04;100658.00;;;10.30
12854;BMP180;6495;51.808;7.478;2023-03-19T04:49:45;100666.00;;;10.30
12854;BMP180;6495;51.808;7.478;2023-03-19T04:52:13;100665.00;;;10.30
12854;BMP180;6495;51.808;7.478;2023-03-19T04:54:42;100670.00;;;10.30
12854;BMP180;6495;51.808;7.478;2023-03-19T04:57:10;100666.00;;;10.30
12854;BMP180;6495;51.808;7.478;2023-03-19T04:59:42;100673.00;;;10.30
12854;BMP180;6495;51.808;7.478;2023-03-19T05:02:13;100662.00;;;10.20
12854;BMP180;6495;51.808;7.478;2023-03-19T05:04:42;100673.00;;;10.20
12854;BMP180;6495;51.808;7.478;2023-03-19T05:07:13;100677.00;;;10.20
12854;BMP180;6495;51.808;7.478;2023-03-19T05:09:42;100682.00;;;10.20
12854;BMP180;6495;51.808;7.478;2023-03-19T05:12:13;100695.00;;;10.20
12854;BMP180;6495;51.808;7.478;2023-03-19T05:14:47;100691.00;;;10.20
12854;BMP180;6495;51.808;7.478;2023-03-19T05:17:21;100688.00;;;10.20
12854;BMP180;6495;51.808;7.478;2023-03-19T05:20:05;100685.00;;;10.20
12854;BMP180;6495;51.808;7.478;2023-03-19T05:22:34;100688.00;;;10.20
12854;BMP180;6495;51.808;7.478;2023-03-19T05:25:04;100685.00;;;10.20
12854;BMP180;6495;51.808;7.478;2023-03-19T05:27:33;100689.00;;;10.30
12854;BMP180;6495;51.808;7.478;2023-03-19T05:30:08;100684.00;;;10.30
12854;BMP180;6495;51.808;7.478;2023-03-19T05:32:52;100688.00;;;10.30
12854;BMP180;6495;51.808;7.478;2023-03-19T05:35:30;100690.00;;;10.20
12854;BMP180;6495;51.808;7.478;2023-03-19T05:38:00;100686.00;;;10.20
12854;BMP180;6495;51.808;7.478;2023-03-19T05:40:29;100695.00;;;10.20
12854;BMP180;6495;51.808;7.478;2023-03-19T05:43:02;100695.00;;;10.30
12854;BMP180;6495;51.808;7.478;2023-03-19T05:45:31;100698.00;;;10.30
12854;BMP180;6495;51.808;7.478;2023-03-19T05:48:09;100708.00;;;10.30
12854;BMP180;6495;51.808;7.478;2023-03-19T05:50:42;100709.00;;;10.30
12854;BMP180;6495;51.808;7.478;2023-03-19T05:53:20;100712.00;;;10.10
12854;BMP180;6495;51.808;7.478;2023-03-19T05:56:11;100707.00;;;10.10
12854;BMP180;6495;51.808;7.478;2023-03-19T05:58:53;100705.00;;;10.10
12854;BMP180;6495;51.808;7.478;2023-03-19T06:01:28;100693.00;;;10.00
12854;BMP180;6495;51.808;7.478;2023-03-19T06:03:58;100698.00;;;10.00
12854;BMP180;6495;51.808;7.478;2023-03-19T06:06:26;100711.00;;;10.00
12854;BMP180;6495;51.808;7.478;2023-03-19T06:08:55;100703.00;;;10.00
12854;BMP180;6495;51.808;7.478;2023-03-19T06:11:30;100712.00;;;10.00
12854;BMP180;6495;51.808;7.478;2023-03-19T06:14:22;100711.00;;;10.00
12854;BMP180;6495;51.808;7.478;2023-03-19T06:17:11;100711.00;;;10.00
12854;BMP180;6495;51.808;7.478;2023-03-19T06:19:40;100715.00;;;10.00
12854;BMP180;6495;51.808;7.478;2023-03-19T06:22:09;100725.00;;;10.10
12854;BMP180;6495;51.808;7.478;2023-03-19T06:24:38;100721.00;;;10.20
12854;BMP180;6495;51.808;7.478;2023-03-19T06:27:06;100731.00;;;10.10
12854;BMP180;6495;51.808;7.478;2023-03-19T06:29:35;100731.00;;;10.10
12854;BMP180;6495;51.808;7.478;2023-03-19T06:32:17;100729.00;;;10.10
12854;BMP180;6495;51.808;7.478;2023-03-19T06:34:48;100734.00;;;10.10
12854;BMP180;6495;51.808;7.478;2023-03-19T06:37:16;100732.00;;;10.20
12854;BMP180;6495;51.808;7.478;2023-03-19T06:39:44;100738.00;;;10.20
12854;BMP180;6495;51.808;7.478;2023-03-19T06:42:13;100741.00;;;10.20
12854;BMP180;6495;51.808;7.478;2023-03-19T06:44:41;100737.00;;;10.20
12854;BMP180;6495;51.808;7.478;2023-03-19T06:47:10;100747.00;;;10.30
12854;BMP180;6495;51.808;7.478;2023-03-19T06:49:41;100759.00;;;10.30
12854;BMP180;6495;51.808;7.478;2023-03-19T06:52:09;100756.00;;;10.30
12854;BMP180;6495;51.808;7.478;2023-03-19T06:54:38;100753.00;;;10.30
12854;BMP180;6495;51.808;7.478;2023-03-19T06:57:06;100751.00;;;10.30
12854;BMP180;6495;51.808;7.478;2023-03-19T06:59:35;100758.00;;;10.40
12854;BMP180;6495;51.808;7.478;2023-03-19T07:02:03;100761.00;;;10.50
12854;BMP180;6495;51.808;7.478;2023-03-19T07:04:31;100773.00;;;10.50
12854;BMP180;6495;51.808;7.478;2023-03-19T07:07:01;100771.00;;;10.60
12854;BMP180;6495;51.808;7.478;2023-03-19T07:09:31;100770.00;;;10.60
12854;BMP180;6495;51.808;7.478;2023-03-19T07:11:59;100777.00;;;10.60
12854;BMP180;6495;51.808;7.478;2023-03-19T07:14:28;100775.00;;;10.60
12854;BMP180;6495;51.808;7.478;2023-03-19T07:16:56;100778.00;;;10.60
12854;BMP180;6495;51.808;7.478;2023-03-19T07:19:24;100776.00;;;10.60
12854;BMP180;6495;51.808;7.478;2023-03-19T07:21:53;100783.00;;;10.70
12854;BMP180;6495;51.808;7.478;2023-03-19T07:24:23;100790.00;;;10.70
12854;BMP180;6495;51.808;7.478;2023-03-19T07:26:51;100792.00;;;10.70
12854;BMP180;6495;51.808;7.478;2023-03-19T07:29:19;100791.00;;;10.70
12854;BMP180;6495;51.808;7.478;2023-03-19T07:31:48;100793.00;;;10.70
12854;BMP180;6495;51.808;7.478;2023-03-19T07:34:16;100790.00;;;10.70
12854;BMP180;6495;51.808;7.478;2023-03-19T07:36:44;100794.00;;;10.70
12854;BMP180;6495;51.808;7.478;2023-03-19T07:39:13;100804.00;;;10.80
12854;BMP180;6495;51.808;7.478;2023-03-19T07:41:42;100803.00;;;10.80
12854;BMP180;6495;51.808;7.478;2023-03-19T07:44:15;100802.00;;;10.90
12854;BMP180;6495;51.808;7.478;2023-03-19T07:46:43;100808.00;;;10.90
12854;BMP180;6495;51.808;7.478;2023-03-19T07:49:12;100805.00;;;11.00
12854;BMP180;6495;51.808;7.478;2023-03-19T07:51:40;100814.00;;;11.20
12854;BMP180;6495;51.808;7.478;2023-03-19T07:54:08;100818.00;;;11.30
12854;BMP180;6495;51.808;7.478;2023-03-19T07:56:36;100811.00;;;11.50
12854;BMP180;6495;51.808;7.478;2023-03-19T07:59:06;100820.00;;;11.60
12854;BMP180;6495;51.808;7.478;2023-03-19T08:01:35;100825.00;;;11.60
12854;BMP180;6495;51.808;7.478;2023-03-19T08:04:03;100809.00;;;11.60
12854;BMP180;6495;51.808;7.478;2023-03-19T08:06:31;100815.00;;;11.70
12854;BMP180;6495;51.808;7.478;2023-03-19T08:09:00;100819.00;;;11.70
12854;BMP180;6495;51.808;7.478;2023-03-19T08:11:33;100815.00;;;11.70
12854;BMP180;6495;51.808;7.478;2023-03-19T08:14:05;100821.00;;;11.80
12854;BMP180;6495;51.808;7.478;2023-03-19T08:16:33;100814.00;;;11.80
12854;BMP180;6495;51.808;7.478;2023-03-19T08:19:02;100824.00;;;11.80
12854;BMP180;6495;51.808;7.478;2023-03-19T08:21:30;100823.00;;;11.80
12854;BMP180;6495;51.808;7.478;2023-03-19T08:23:59;100817.00;;;11.80
12854;BMP180;6495;51.808;7.478;2023-03-19T08:26:30;100821.00;;;11.80
12854;BMP180;6495;51.808;7.478;2023-03-19T08:28:59;100826.00;;;11.90
12854;BMP180;6495;51.808;7.478;2023-03-19T08:31:29;100826.00;;;11.90
12854;BMP180;6495;51.808;7.478;2023-03-19T08:33:57;100843.00;;;11.90
12854;BMP180;6495;51.808;7.478;2023-03-19T08:36:26;100844.00;;;11.90
12854;BMP180;6495;51.808;7.478;2023-03-19T08:38:54;100844.00;;;12.00
12854;BMP180;6495;51.808;7.478;2023-03-19T08:41:22;100843.00;;;12.00
12854;BMP180;6495;51.808;7.478;2023-03-19T08:43:51;100853.00;;;12.00
12854;BMP180;6495;51.808;7.478;2023-03-19T08:46:19;100843.00;;;12.00
12854;BMP180;6495;51.808;7.478;2023-03-19T08:48:48;100848.00;;;12.00
12854;BMP180;6495;51.808;7.478;2023-03-19T08:51:17;100859.00;;;12.00
12854;BMP180;6495;51.808;7.478;2023-03-19T08:53:45;100866.00;;;12.10
12854;BMP180;6495;51.808;7.478;2023-03-19T08:56:13;100854.00;;;12.10
12854;BMP180;6495;51.808;7.478;2023-03-19T08:58:42;100865.00;;;12.20
12854;BMP180;6495;51.808;7.478;2023-03-19T09:01:13;100865.00;;;12.20
12854;BMP180;6495;51.808;7.478;2023-03-19T09:03:43;100875.00;;;12.20
12854;BMP180;6495;51.808;7.478;2023-03-19T09:06:14;100866.00;;;12.20
12854;BMP180;6495;51.808;7.478;2023-03-19T09:08:42;100875.00;;;12.20
12854;BMP180;6495;51.808;7.478;2023-03-19T09:11:10;100877.00;;;12.20
12854;BMP180;6495;51.808;7.478;2023-03-19T09:13:40;100881.00;;;12.20
12854;BMP180;6495;51.808;7.478;2023-03-19T09:16:08;100881.00;;;12.30
12854;BMP180;6495;51.808;7.478;2023-03-19T09:18:37;100870.00;;;12.30
12854;BMP180;6495;51.808;7.478;2023-03-19T09:21:05;100887.00;;;12.40
12854;BMP180;6495;51.808;7.478;2023-03-19T09:23:34;100884.00;;;12.40
12854;BMP180;6495;51.808;7.478;2023-03-19T09:26:03;100894.00;;;12.40
12854;BMP180;6495;51.808;7.478;2023-03-19T09:28:31;100885.00;;;12.50
12854;BMP180;6495;51.808;7.478;2023-03-19T09:30:59;100882.00;;;12.50
12854;BMP180;6495;51.808;7.478;2023-03-19T09:33:32;100888.00;;;12.60
12854;BMP180;6495;51.808;7.478;2023-03-19T09:36:01;100890.00;;;12.60
12854;BMP180;6495;51.808;7.478;2023-03-19T09:38:29;100886.00;;;12.70
12854;BMP180;6495;51.808;7.478;2023-03-19T09:41:08;100896.00;;;12.70
12854;BMP180;6495;51.808;7.478;2023-03-19T09:43:59;100901.00;;;12.80
12854;BMP180;6495;51.808;7.478;2023-03-19T09:46:37;100900.00;;;12.80
12854;BMP180;6495;51.808;7.478;2023-03-19T09:49:20;100901.00;;;12.80
12854;BMP180;6495;51.808;7.478;2023-03-19T09:51:52;100906.00;;;12.90
12854;BMP180;6495;51.808;7.478;2023-03-19T09:54:31;100900.00;;;12.90
12854;BMP180;6495;51.808;7.478;2023-03-19T09:57:02;100906.00;;;13.00
12854;BMP180;6495;51.808;7.478;2023-03-19T09:59:30;100909.00;;;13.00
12854;BMP180;6495;51.808;7.478;2023-03-19T10:02:30;100904.00;;;13.10
12854;BMP180;6495;51.808;7.478;2023-03-19T10:05:19;100901.00;;;13.20
12854;BMP180;6495;51.808;7.478;2023-03-19T10:08:10;100914.00;;;13.30
12854;BMP180;6495;51.808;7.478;2023-03-19T10:10:58;100899.00;;;13.30
12854;BMP180;6495;51.808;7.478;2023-03-19T10:13:51;100910.00;;;13.40
12854;BMP180;6495;51.808;7.478;2023-03-19T10:16:23;100927.00;;;13.30
12854;BMP180;6495;51.808;7.478;2023-03-19T10:18:57;100920.00;;;13.40
12854;BMP180;6495;51.808;7.478;2023-03-19T10:21:31;100925.00;;;13.50
12854;BMP180;6495;51.808;7.478;2023-03-19T10:24:04;100921.00;;;13.60
12854;BMP180;6495;51.808;7.478;2023-03-19T10:26:34;100912.00;;;13.60
12854;BMP180;6495;51.808;7.478;2023-03-19T10:29:09;100918.00;;;13.60
12854;BMP180;6495;51.808;7.478;2023-03-19T10:31:51;100914.00;;;13.70
12854;BMP180;6495;51.808;7.478;2023-03-19T10:34:29;100911.00;;;13.70
12854;BMP180;6495;51.808;7.478;2023-03-19T10:37:04;100926.00;;;13.70
12854;BMP180;6495;51.808;7.478;2023-03-19T10:39:35;100930.00;;;13.80
12854;BMP180;6495;51.808;7.478;2023-03-19T10:42:34;100929.00;;;13.80
12854;BMP180;6495;51.808;7.478;2023-03-19T10:45:22;100915.00;;;13.90
12854;BMP180;6495;51.808;7.478;2023-03-19T10:47:52;100926.00;;;14.00
12854;BMP180;6495;51.808;7.478;2023-03-19T10:50:29;100933.00;;;14.00
12854;BMP180;6495;51.808;7.478;2023-03-19T10:53:06;100935.00;;;14.10
12854;BMP180;6495;51.808;7.478;2023-03-19T10:55:35;100927.00;;;14.20
12854;BMP180;6495;51.808;7.478;2023-03-19T10:58:08;100935.00;;;14.20
12854;BMP180;6495;51.808;7.478;2023-03-19T11:00:47;100939.00;;;14.20
12854;BMP180;6495;51.808;7.478;2023-03-19T11:03:30;100937.00;;;14.30
12854;BMP180;6495;51.808;7.478;2023-03-19T11:06:16;100930.00;;;14.30
12854;BMP180;6495;51.808;7.478;2023-03-19T11:08:54;100934.00;;;14.40
12854;BMP180;6495;51.808;7.478;2023-03-19T11:11:26;100932.00;;;14.50
12854;BMP180;6495;51.808;7.478;2023-03-19T11:14:07;100935.00;;;14.50
12854;BMP180;6495;51.808;7.478;2023-03-19T11:16:57;100935.00;;;14.50
12854;BMP180;6495;51.808;7.478;2023-03-19T11:19:32;100932.00;;;14.50
12854;BMP180;6495;51.808;7.478;2023-03-19T11:22:15;100932.00;;;14.60
12854;BMP180;6495;51.808;7.478;2023-03-19T11:24:53;100939.00;;;14.70
12854;BMP180;6495;51.808;7.478;2023-03-19T11:27:31;100938.00;;;14.80
12854;BMP180;6495;51.808;7.478;2023-03-19T11:30:01;100928.00;;;14.90
12854;BMP180;6495;51.808;7.478;2023-03-19T11:33:17;100942.00;;;15.00
12854;BMP180;6495;51.808;7.478;2023-03-19T11:35:55;100926.00;;;15.10
12854;BMP180;6495;51.808;7.478;2023-03-19T11:38:39;100935.00;;;15.20
12854;BMP180;6495;51.808;7.478;2023-03-19T11:41:18;100939.00;;;15.30
12854;BMP180;6495;51.808;7.478;2023-03-19T11:43:57;100932.00;;;15.40
12854;BMP180;6495;51.808;7.478;2023-03-19T11:46:39;100936.00;;;15.50
12854;BMP180;6495;51.808;7.478;2023-03-19T11:49:41;100931.00;;;15.60
12854;BMP180;6495;51.808;7.478;2023-03-19T11:52:22;100931.00;;;15.80
12854;BMP180;6495;51.808;7.478;2023-03-19T11:55:15;100931.00;;;16.10
12854;BMP180;6495;51.808;7.478;2023-03-19T11:58:12;100932.00;;;16.30
12854;BMP180;6495;51.808;7.478;2023-03-19T12:00:46;100932.00;;;16.40
12854;BMP180;6495;51.808;7.478;2023-03-19T12:03:42;100929.00;;;16.50
12854;BMP180;6495;51.808;7.478;2023-03-19T12:06:32;100939.00;;;16.50
12854;BMP180;6495;51.808;7.478;2023-03-19T12:09:11;100931.00;;;16.60
12854;BMP180;6495;51.808;7.478;2023-03-19T12:11:51;100926.00;;;16.70
12854;BMP180;6495;51.808;7.478;2023-03-19T12:14:37;100938.00;;;16.70
12854;BMP180;6495;51.808;7.478;2023-03-19T12:17:23;100937.00;;;16.70
12854;BMP180;6495;51.808;7.478;2023-03-19T12:20:14;100945.00;;;16.80
12854;BMP180;6495;51.808;7.478;2023-03-19T12:23:11;100933.00;;;16.70
12854;BMP180;6495;51.808;7.478;2023-03-19T12:26:01;100945.00;;;16.60
12854;BMP180;6495;51.808;7.478;2023-03-19T12:28:35;100940.00;;;16.50
12854;BMP180;6495;51.808;7.478;2023-03-19T12:31:32;100939.00;;;16.40
12854;BMP180;6495;51.808;7.478;2023-03-19T12:34:23;100937.00;;;16.40
12854;BMP180;6495;51.808;7.478;2023-03-19T12:37:16;100939.00;;;16.40
12854;BMP180;6495;51.808;7.478;2023-03-19T12:40:01;100934.00;;;16.40
12854;BMP180;6495;51.808;7.478;2023-03-19T12:42:37;100939.00;;;16.30
12854;BMP180;6495;51.808;7.478;2023-03-19T12:45:23;100947.00;;;16.30
12854;BMP180;6495;51.808;7.478;2023-03-19T12:48:01;100941.00;;;16.30
12854;BMP180;6495;51.808;7.478;2023-03-19T12:50:33;100938.00;;;16.30
12854;BMP180;6495;51.808;7.478;2023-03-19T12:53:07;100934.00;;;16.30
12854;BMP180;6495;51.808;7.478;2023-03-19T12:55:43;100940.00;;;16.40
12854;BMP180;6495;51.808;7.478;2023-03-19T12:58:21;100933.00;;;16.50
12854;BMP180;6495;51.808;7.478;2023-03-19T13:00:59;100939.00;;;16.50
12854;BMP180;6495;51.808;7.478;2023-03-19T13:03:39;100947.00;;;16.60
12854;BMP180;6495;51.808;7.478;2023-03-19T13:06:18;100944.00;;;16.60
12854;BMP180;6495;51.808;7.478;2023-03-19T13:08:55;100945.00;;;16.60
12854;BMP180;6495;51.808;7.478;2023-03-19T13:11:38;100942.00;;;16.60
12854;BMP180;6495;51.808;7.478;2023-03-19T13:14:18;100946.00;;;16.60
12854;BMP180;6495;51.808;7.478;2023-03-19T13:16:57;100940.00;;;16.60
12854;BMP180;6495;51.808;7.478;2023-03-19T13:19:36;100942.00;;;16.60
12854;BMP180;6495;51.808;7.478;2023-03-19T13:22:12;100949.00;;;16.70
12854;BMP180;6495;51.808;7.478;2023-03-19T13:24:45;100945.00;;;16.70
12854;BMP180;6495;51.808;7.478;2023-03-19T13:27:20;100949.00;;;16.60
12854;BMP180;6495;51.808;7.478;2023-03-19T13:30:00;100952.00;;;16.60
12854;BMP180;6495;51.808;7.478;2023-03-19T13:32:38;100952.00;;;16.60
12854;BMP180;6495;51.808;7.478;2023-03-19T13:35:33;100952.00;;;16.70
12854;BMP180;6495;51.808;7.478;2023-03-19T13:38:16;100948.00;;;16.60
12854;BMP180;6495;51.808;7.478;2023-03-19T13:40:48;100945.00;;;16.60
12854;BMP180;6495;51.808;7.478;2023-03-19T13:43:41;100948.00;;;16.70
12854;BMP180;6495;51.808;7.478;2023-03-19T13:46:45;100937.00;;;16.70
12854;BMP180;6495;51.808;7.478;2023-03-19T13:49:33;100946.00;;;16.70
12854;BMP180;6495;51.808;7.478;2023-03-19T13:52:47;100937.00;;;16.60
12854;BMP180;6495;51.808;7.478;2023-03-19T13:55:44;100938.00;;;16.50
12854;BMP180;6495;51.808;7.478;2023-03-19T13:58:23;100936.00;;;16.40
12854;BMP180;6495;51.808;7.478;2023-03-19T14:01:38;100928.00;;;16.40
12854;BMP180;6495;51.808;7.478;2023-03-19T14:04:19;100939.00;;;16.40
12854;BMP180;6495;51.808;7.478;2023-03-19T14:06:50;100928.00;;;16.50
12854;BMP180;6495;51.808;7.478;2023-03-19T14:09:42;100937.00;;;16.60
12854;BMP180;6495;51.808;7.478;2023-03-19T14:12:24;100938.00;;;16.70
12854;BMP180;6495;51.808;7.478;2023-03-19T14:15:01;100936.00;;;16.80
12854;BMP180;6495;51.808;7.478;2023-03-19T14:17:35;100940.00;;;16.90
12854;BMP180;6495;51.808;7.478;2023-03-19T14:20:23;100934.00;;;16.80
12854;BMP180;6495;51.808;7.478;2023-03-19T14:23:18;100938.00;;;16.90
12854;BMP180;6495;51.808;7.478;2023-03-19T14:26:03;100936.00;;;17.10
12854;BMP180;6495;51.808;7.478;2023-03-19T14:28:45;100936.00;;;17.20
12854;BMP180;6495;51.808;7.478;2023-03-19T14:31:30;100937.00;;;17.30
12854;BMP180;6495;51.808;7.478;2023-03-19T14:34:17;100939.00;;;17.40
12854;BMP180;6495;51.808;7.478;2023-03-19T14:36:57;100946.00;;;17.50
12854;BMP180;6495;51.808;7.478;2023-03-19T14:39:30;100948.00;;;17.50
12854;BMP180;6495;51.808;7.478;2023-03-19T14:42:05;100938.00;;;17.50
12854;BMP180;6495;51.808;7.478;2023-03-19T14:45:24;100942.00;;;17.50
12854;BMP180;6495;51.808;7.478;2023-03-19T14:48:14;100949.00;;;17.50
12854;BMP180;6495;51.808;7.478;2023-03-19T14:51:53;100947.00;;;17.40
12854;BMP180;6495;51.808;7.478;2023-03-19T14:54:34;100957.00;;;17.30
12854;BMP180;6495;51.808;7.478;2023-03-19T14:57:07;100948.00;;;17.30
12854;BMP180;6495;51.808;7.478;2023-03-19T14:59:41;100952.00;;;17.30
12854;BMP180;6495;51.808;7.478;2023-03-19T15:02:26;100949.00;;;17.30